createdAt,value
2023-05-23T00:04:52.261Z,3.50
2023-05-23T00:09:52.192Z,4.20
2023-05-23T00:14:52.129Z,4.20
2023-05-23T00:19:52.066Z,3.70
2023-05-23T00:24:52.564Z,3.90
2023-05-23T00:29:51.933Z,4.40
2023-05-23T00:34:51.857Z,4.10
2023-05-23T00:39:51.787Z,4.70
2023-05-23T00:44:51.729Z,4.40
2023-05-23T00:49:51.652Z,4.80
2023-05-23T00:54:51.586Z,4.90
2023-05-23T00:59:51.546Z,5.80
2023-05-23T01:04:51.772Z,6.20
2023-05-23T01:09:51.392Z,6.30
2023-05-23T01:14:51.326Z,6.60
2023-05-23T01:19:51.288Z,6.30
2023-05-23T01:24:51.271Z,6.60
2023-05-23T01:29:51.163Z,6.30
2023-05-23T01:34:51.100Z,6.70
2023-05-23T01:39:51.018Z,7.60
2023-05-23T01:44:50.978Z,8.00
2023-05-23T01:49:50.901Z,8.20
2023-05-23T01:54:50.890Z,7.50
2023-05-23T01:59:50.795Z,7.70
2023-05-23T02:04:50.734Z,7.90
2023-05-23T02:09:50.636Z,7.70
2023-05-23T02:14:50.586Z,7.50
2023-05-23T02:19:50.489Z,7.40
2023-05-23T02:24:50.442Z,7.60
2023-05-23T02:29:50.367Z,7.90
2023-05-23T02:34:50.319Z,8.60
2023-05-23T02:39:50.245Z,8.60
2023-05-23T02:44:50.160Z,7.90
2023-05-23T02:49:50.091Z,7.80
2023-05-23T02:54:50.029Z,7.10
2023-05-23T02:59:49.963Z,6.60
2023-05-23T03:04:49.959Z,7.50
2023-05-23T03:09:49.939Z,7.60
2023-05-23T03:14:49.824Z,8.20
2023-05-23T03:19:49.838Z,7.90
2023-05-23T03:24:49.757Z,7.00
2023-05-23T03:29:49.731Z,7.20
2023-05-23T03:34:49.560Z,6.90
2023-05-23T03:39:49.561Z,6.60
2023-05-23T03:44:49.410Z,6.70
2023-05-23T03:49:49.337Z,6.40
2023-05-23T03:54:49.274Z,6.90
2023-05-23T03:59:49.187Z,7.30
2023-05-23T04:04:49.116Z,7.50
2023-05-23T04:09:49.055Z,7.50
2023-05-23T04:14:49.045Z,7.10
2023-05-23T04:19:48.914Z,7.40
2023-05-23T04:24:48.808Z,7.60
2023-05-23T04:29:48.707Z,7.80
2023-05-23T04:34:48.642Z,7.40
2023-05-23T04:39:48.576Z,7.60
2023-05-23T04:44:48.516Z,7.40
2023-05-23T04:49:48.443Z,7.30
2023-05-23T04:54:48.385Z,7.20
2023-05-23T04:59:48.305Z,7.20
2023-05-23T05:04:48.241Z,7.00
2023-05-23T05:09:48.167Z,6.70
2023-05-23T05:14:48.097Z,6.90
2023-05-23T05:19:48.040Z,7.90
2023-05-23T05:24:47.975Z,8.00
2023-05-23T05:29:47.901Z,9.00
2023-05-23T05:34:49.460Z,7.60
2023-05-23T05:39:47.764Z,7.50
2023-05-23T05:44:47.709Z,7.30
2023-05-23T05:49:47.636Z,7.80
2023-05-23T05:54:47.562Z,7.20
2023-05-23T05:59:47.491Z,7.30
2023-05-23T06:04:47.496Z,7.60
2023-05-23T06:09:47.371Z,6.50
2023-05-23T06:14:47.303Z,8.10
2023-05-23T06:19:47.220Z,9.40
2023-05-23T06:24:47.177Z,9.30
2023-05-23T06:29:47.119Z,11.10
2023-05-23T06:34:47.046Z,9.10
2023-05-23T06:39:46.963Z,10.90
2023-05-23T06:44:46.905Z,11.90
2023-05-23T06:49:46.828Z,12.60
2023-05-23T06:54:46.795Z,11.40
2023-05-23T06:59:46.696Z,9.30
2023-05-23T07:04:46.632Z,10.60
2023-05-23T07:09:46.573Z,11.00
2023-05-23T07:14:46.500Z,7.40
2023-05-23T07:19:46.417Z,9.30
2023-05-23T07:24:46.369Z,8.90
2023-05-23T07:29:46.280Z,8.40
2023-05-23T07:34:46.222Z,8.10
2023-05-23T07:39:46.151Z,8.70
2023-05-23T07:44:46.096Z,8.50
2023-05-23T07:49:46.010Z,8.10
2023-05-23T07:54:45.950Z,8.60
2023-05-23T07:59:45.892Z,8.30
2023-05-23T08:04:45.932Z,7.50
2023-05-23T08:09:45.743Z,7.10
2023-05-23T08:14:51.592Z,7.50
2023-05-23T08:19:46.620Z,7.60
2023-05-23T08:24:45.558Z,7.70
2023-05-23T08:29:45.487Z,8.40
2023-05-23T08:34:45.434Z,7.80
2023-05-23T08:39:45.353Z,8.10
2023-05-23T08:44:45.314Z,9.50
2023-05-23T08:49:45.234Z,8.90
2023-05-23T08:54:45.186Z,9.20
2023-05-23T08:59:45.099Z,8.30
2023-05-23T09:04:45.031Z,8.50
2023-05-23T09:09:44.962Z,8.00
2023-05-23T09:14:44.902Z,7.80
2023-05-23T09:19:44.823Z,9.10
2023-05-23T09:24:44.774Z,9.30
2023-05-23T09:29:44.700Z,12.70
2023-05-23T09:34:44.640Z,14.20
2023-05-23T09:39:44.591Z,13.60
2023-05-23T09:44:44.505Z,17.60
2023-05-23T09:49:44.428Z,18.20
2023-05-23T09:54:44.373Z,20.50
2023-05-23T09:59:44.296Z,20.80
2023-05-23T10:04:44.340Z,17.70
2023-05-23T10:09:44.165Z,15.60
2023-05-23T10:14:44.107Z,17.80
2023-05-23T10:19:44.054Z,13.80
2023-05-23T10:24:43.976Z,11.20
2023-05-23T10:29:43.952Z,10.10
2023-05-23T10:34:43.841Z,8.80
2023-05-23T10:39:43.763Z,7.50
2023-05-23T10:44:43.709Z,7.70
2023-05-23T10:49:43.701Z,8.60
2023-05-23T10:54:43.587Z,8.10
2023-05-23T10:59:43.503Z,7.60
2023-05-23T11:04:43.494Z,7.80
2023-05-23T11:09:43.372Z,6.60
2023-05-23T11:14:43.310Z,6.60
2023-05-23T11:19:43.359Z,6.60
2023-05-23T11:24:43.183Z,6.60
2023-05-23T11:29:43.110Z,6.70
2023-05-23T11:34:43.060Z,7.20
2023-05-23T11:39:42.976Z,7.80
2023-05-23T11:44:42.919Z,6.30
2023-05-23T11:49:42.850Z,6.00
2023-05-23T11:54:42.782Z,6.30
2023-05-23T11:59:42.719Z,6.50
2023-05-23T12:04:42.681Z,6.30
2023-05-23T12:09:42.635Z,7.00
2023-05-23T12:14:42.513Z,6.20
2023-05-23T12:19:42.535Z,6.70
2023-05-23T12:24:42.384Z,6.10
2023-05-23T12:29:42.322Z,7.50
2023-05-23T12:34:42.330Z,7.60
2023-05-23T12:39:42.177Z,7.10
2023-05-23T12:44:42.202Z,7.90
2023-05-23T12:49:42.086Z,8.10
2023-05-23T12:54:41.995Z,7.10
2023-05-23T12:59:41.920Z,6.30
2023-05-23T13:04:41.856Z,5.30
2023-05-23T13:09:41.805Z,4.40
2023-05-23T13:14:41.725Z,4.10
2023-05-23T13:19:41.814Z,4.00
2023-05-23T13:24:41.594Z,4.20
2023-05-23T13:29:41.525Z,4.50
2023-05-23T13:34:41.489Z,4.30
2023-05-23T13:39:41.388Z,4.20
2023-05-23T13:44:41.328Z,4.50
2023-05-23T13:49:41.265Z,4.80
2023-05-23T13:54:41.202Z,4.40
2023-05-23T13:59:41.131Z,4.70
2023-05-23T14:04:41.093Z,4.30
2023-05-23T14:09:41.001Z,4.00
2023-05-23T14:14:40.930Z,4.60
2023-05-23T14:19:40.933Z,3.90
2023-05-23T14:24:40.812Z,3.70
2023-05-23T14:29:40.752Z,3.30
2023-05-23T14:34:40.661Z,2.90
2023-05-23T14:39:41.376Z,2.30
2023-05-23T14:44:40.520Z,2.30
2023-05-23T14:49:40.460Z,2.40
2023-05-23T14:54:40.401Z,2.80
2023-05-23T14:59:40.358Z,3.30
2023-05-23T15:04:40.256Z,3.10
2023-05-23T15:09:40.189Z,3.10
2023-05-23T15:14:40.143Z,3.10
2023-05-23T15:19:40.142Z,4.00
2023-05-23T15:24:40.954Z,3.50
2023-05-23T15:29:39.935Z,3.50
2023-05-23T15:34:39.868Z,3.70
2023-05-23T15:39:39.794Z,3.90
2023-05-23T15:44:40.705Z,3.40
2023-05-23T15:49:39.668Z,3.90
2023-05-23T15:54:39.690Z,3.10
2023-05-23T15:59:39.581Z,2.70
2023-05-23T16:04:39.539Z,3.20
2023-05-23T16:09:39.457Z,2.60
2023-05-23T16:14:39.362Z,2.40
2023-05-23T16:19:40.164Z,2.90
2023-05-23T16:24:39.461Z,3.40
2023-05-23T16:29:39.174Z,3.40
2023-05-23T16:34:39.470Z,3.30
2023-05-23T16:39:39.053Z,3.60
2023-05-23T16:44:38.996Z,3.40
2023-05-23T16:49:38.905Z,3.80
2023-05-23T16:54:39.632Z,3.70
2023-05-23T16:59:38.781Z,3.20
2023-05-23T17:04:38.694Z,3.20
2023-05-23T17:09:38.620Z,3.40
2023-05-23T17:14:38.533Z,3.40
2023-05-23T17:19:38.561Z,3.00
2023-05-23T17:24:38.636Z,3.50
2023-05-23T17:29:38.346Z,2.90
2023-05-23T17:34:38.267Z,2.90
2023-05-23T17:39:38.532Z,3.40
2023-05-23T17:44:38.125Z,3.00
2023-05-23T17:49:38.050Z,3.50
2023-05-23T17:54:38.031Z,2.60
2023-05-23T17:59:37.909Z,1.90
2023-05-23T18:04:38.379Z,2.00
2023-05-23T18:09:38.787Z,2.30
2023-05-23T18:14:37.707Z,2.20
2023-05-23T18:19:37.711Z,1.90
2023-05-23T18:24:37.582Z,2.20
2023-05-23T18:29:37.525Z,2.40
2023-05-23T18:34:37.447Z,2.80
2023-05-23T18:39:37.410Z,2.50
2023-05-23T18:44:37.324Z,2.30
2023-05-23T18:49:37.257Z,2.80
2023-05-23T18:54:37.180Z,2.50
2023-05-23T18:59:37.127Z,3.20
2023-05-23T19:04:37.057Z,2.60
2023-05-23T19:09:37.003Z,3.40
2023-05-23T19:14:36.925Z,4.20
2023-05-23T19:19:36.885Z,5.40
2023-05-23T19:24:36.785Z,5.90
2023-05-23T19:29:36.723Z,4.90
2023-05-23T19:34:36.679Z,5.40
2023-05-23T19:39:36.602Z,5.70
2023-05-23T19:44:36.519Z,6.90
2023-05-23T19:49:36.477Z,5.80
2023-05-23T19:54:36.426Z,4.60
2023-05-23T19:59:36.352Z,5.70
2023-05-23T20:04:36.265Z,4.50
2023-05-23T20:09:36.197Z,4.90
2023-05-23T20:14:36.125Z,5.00
2023-05-23T20:19:36.089Z,5.50
2023-05-23T20:24:35.995Z,5.80
2023-05-23T20:29:35.935Z,4.90
2023-05-23T20:34:35.867Z,5.40
2023-05-23T20:39:35.796Z,5.30
2023-05-23T20:44:35.758Z,5.50
2023-05-23T20:49:35.695Z,4.90
2023-05-23T20:54:35.591Z,4.50
2023-05-23T20:59:35.535Z,4.90
2023-05-23T21:04:35.458Z,4.20
2023-05-23T21:09:35.401Z,4.80
2023-05-23T21:14:35.345Z,4.90
2023-05-23T21:19:35.299Z,4.70
2023-05-23T21:24:35.232Z,6.20
2023-05-23T21:29:35.140Z,5.00
2023-05-23T21:34:35.093Z,4.80
2023-05-23T21:39:50.039Z,4.90
2023-05-23T21:44:35.950Z,4.80
2023-05-23T21:49:34.888Z,5.50
2023-05-23T21:54:34.859Z,5.10
2023-05-23T21:59:34.746Z,4.50
2023-05-23T22:04:34.684Z,5.10
2023-05-23T22:09:34.619Z,4.40
2023-05-23T22:14:34.547Z,4.20
2023-05-23T22:19:34.562Z,5.10
2023-05-23T22:24:34.429Z,4.70
2023-05-23T22:29:34.371Z,4.80
2023-05-23T22:34:34.291Z,3.50
2023-05-23T22:39:34.233Z,4.30
2023-05-23T22:44:34.164Z,4.00
2023-05-23T22:49:34.101Z,4.40
2023-05-23T22:54:34.039Z,3.80
2023-05-23T22:59:33.973Z,3.80
2023-05-23T23:04:33.896Z,4.40
2023-05-23T23:09:33.859Z,4.00
2023-05-23T23:14:33.779Z,3.50
2023-05-23T23:19:33.710Z,3.20
2023-05-23T23:24:33.646Z,3.80
2023-05-23T23:29:33.572Z,3.30
2023-05-23T23:34:33.513Z,3.40
2023-05-23T23:39:33.451Z,3.80
2023-05-23T23:44:33.377Z,3.20
2023-05-23T23:49:33.315Z,3.00
2023-05-23T23:54:33.241Z,3.50
2023-05-23T23:59:33.199Z,3.30
